Time;durP1;ratioP1;P1;durP2;ratioP2;P2;SDS_P1;SDS_P2;PMS_P1;PMS_P2;Temp;Humidity;BMP_temperature;BMP_pressure;BME280_temperature;BME280_humidity;BME280_pressure;Samples;Min_cycle;Max_cycle;Signal;HPM_P1;HPM_P2
2021/09/06 00:01:46;;;;;;;8.97;6.67;;;12.40;99.90;;;;;;5002202;28;20226;-81
2021/09/06 00:04:12;;;;;;;7.30;6.30;;;12.40;99.90;;;;;;5001413;28;20241;-81
2021/09/06 00:06:40;;;;;;;8.03;6.50;;;12.40;99.90;;;;;;5003636;28;20181;-81
2021/09/06 00:09:05;;;;;;;8.57;6.33;;;12.30;99.90;;;;;;5002627;28;20234;-80
2021/09/06 00:11:31;;;;;;;10.43;6.90;;;12.30;99.90;;;;;;5001318;28;20540;-80
2021/09/06 00:13:57;;;;;;;9.83;6.93;;;12.30;99.90;;;;;;5000507;28;20190;-81
2021/09/06 00:16:22;;;;;;;9.77;7.37;;;12.30;99.90;;;;;;5002387;28;20179;-81
2021/09/06 00:18:48;;;;;;;8.83;7.20;;;12.30;99.90;;;;;;5003874;28;20186;-80
2021/09/06 00:21:14;;;;;;;9.80;7.60;;;12.30;99.90;;;;;;5003257;28;20215;-81
2021/09/06 00:23:40;;;;;;;10.53;7.37;;;12.20;99.90;;;;;;5002056;28;20188;-81
2021/09/06 00:26:06;;;;;;;9.57;6.73;;;12.20;99.90;;;;;;5002543;28;20211;-81
2021/09/06 00:28:32;;;;;;;10.53;6.93;;;12.20;99.90;;;;;;5002871;28;20254;-81
2021/09/06 00:30:57;;;;;;;10.80;7.53;;;12.10;99.90;;;;;;5003299;28;20192;-81
2021/09/06 00:33:24;;;;;;;12.27;7.80;;;12.20;99.90;;;;;;5002261;28;20187;-81
2021/09/06 00:35:50;;;;;;;11.00;7.13;;;12.20;99.90;;;;;;5009427;28;20242;-80
2021/09/06 00:38:17;;;;;;;11.53;7.63;;;12.30;99.90;;;;;;5010412;28;20184;-81
2021/09/06 00:40:44;;;;;;;9.73;7.17;;;12.20;99.90;;;;;;5008527;28;20195;-81
2021/09/06 00:43:10;;;;;;;10.77;7.07;;;12.20;99.90;;;;;;5016036;28;20246;-80
2021/09/06 00:45:37;;;;;;;10.33;7.40;;;12.20;99.90;;;;;;5014910;28;20164;-80
2021/09/06 00:48:03;;;;;;;12.27;7.90;;;12.10;99.90;;;;;;5010654;28;20225;-81
2021/09/06 00:50:29;;;;;;;11.63;7.43;;;12.10;99.90;;;;;;5002616;28;20207;-81
2021/09/06 00:52:55;;;;;;;9.67;7.60;;;12.10;99.90;;;;;;5001145;28;20183;-81
2021/09/06 00:55:22;;;;;;;10.87;7.23;;;12.10;99.90;;;;;;5001091;28;20229;-81
2021/09/06 00:57:48;;;;;;;9.10;7.40;;;12.00;99.90;;;;;;5002670;28;20181;-81
2021/09/06 01:00:15;;;;;;;9.87;7.43;;;12.00;99.90;;;;;;5002637;28;20199;-81
2021/09/06 01:02:44;;;;;;;12.77;8.00;;;12.00;99.90;;;;;;5000408;28;20211;-79
2021/09/06 01:05:13;;;;;;;10.40;7.80;;;11.90;99.90;;;;;;5001084;28;20190;-81
2021/09/06 01:07:39;;;;;;;10.70;8.13;;;11.90;99.90;;;;;;5002547;28;20692;-81
2021/09/06 01:10:08;;;;;;;12.57;8.23;;;11.90;99.90;;;;;;5002352;28;20207;-81
2021/09/06 01:12:34;;;;;;;9.33;7.03;;;11.90;99.90;;;;;;5002405;28;20510;-81
2021/09/06 01:15:00;;;;;;;8.93;7.20;;;11.80;99.90;;;;;;5000835;28;20660;-81
2021/09/06 01:17:25;;;;;;;9.40;7.70;;;11.90;99.90;;;;;;5000826;28;20183;-81
2021/09/06 01:19:51;;;;;;;12.30;8.07;;;11.80;99.90;;;;;;5000907;28;20211;-81
2021/09/06 01:22:18;;;;;;;9.90;7.53;;;11.80;99.90;;;;;;5001823;28;20246;-82
2021/09/06 01:24:45;;;;;;;9.47;7.40;;;11.80;99.90;;;;;;5000672;28;20215;-81
2021/09/06 01:27:11;;;;;;;10.40;7.73;;;11.70;99.90;;;;;;5002152;28;20172;-81
2021/09/06 01:29:37;;;;;;;10.47;7.83;;;11.70;99.90;;;;;;5002047;28;20705;-81
2021/09/06 01:32:07;;;;;;;8.63;6.80;;;11.70;99.90;;;;;;5000542;28;20175;-81
2021/09/06 01:34:33;;;;;;;11.43;8.43;;;11.70;99.90;;;;;;5001565;28;20192;-81
2021/09/06 01:37:00;;;;;;;9.03;6.90;;;11.70;99.90;;;;;;5000736;28;20207;-81
2021/09/06 01:39:25;;;;;;;9.17;7.00;;;11.80;99.90;;;;;;5000944;28;20252;-81
2021/09/06 01:41:51;;;;;;;9.17;6.10;;;;;;;;;;4998524;28;20214;-80
2021/09/06 01:44:17;;;;;;;10.00;7.03;;;11.70;99.90;;;;;;4999825;28;20175;-81
2021/09/06 01:46:43;;;;;;;10.20;7.23;;;11.70;99.90;;;;;;4997677;28;20548;-81
2021/09/06 01:49:08;;;;;;;9.47;6.73;;;11.60;99.90;;;;;;4997384;28;20222;-80
2021/09/06 01:51:34;;;;;;;10.17;7.23;;;11.60;99.90;;;;;;5009988;28;20197;-81
2021/09/06 01:54:00;;;;;;;11.83;7.63;;;11.60;99.90;;;;;;5001322;28;20230;-81
2021/09/06 01:56:26;;;;;;;10.20;7.53;;;11.50;99.90;;;;;;5001147;28;20269;-81
2021/09/06 01:58:52;;;;;;;8.07;5.97;;;11.40;99.90;;;;;;5000241;28;20180;-81
2021/09/06 02:01:18;;;;;;;9.23;6.97;;;11.40;99.90;;;;;;5000665;28;20269;-81
2021/09/06 02:03:43;;;;;;;9.97;6.67;;;11.40;99.90;;;;;;5002429;28;20171;-81
2021/09/06 02:06:09;;;;;;;10.80;7.90;;;11.40;99.90;;;;;;5002376;28;20176;-81
2021/09/06 02:08:35;;;;;;;9.47;7.57;;;11.40;99.90;;;;;;5001227;28;20195;-81
2021/09/06 02:11:01;;;;;;;8.97;6.97;;;11.40;99.90;;;;;;5001172;28;20199;-81
2021/09/06 02:13:27;;;;;;;10.30;7.70;;;11.40;99.90;;;;;;5001495;28;20214;-81
2021/09/06 02:15:53;;;;;;;10.60;7.40;;;11.30;99.90;;;;;;5001762;28;20532;-81
2021/09/06 02:18:18;;;;;;;11.20;7.57;;;11.30;99.90;;;;;;4999774;28;20186;-81
2021/09/06 02:20:44;;;;;;;13.27;8.03;;;11.20;99.90;;;;;;5001492;28;20203;-81
2021/09/06 02:23:10;;;;;;;9.27;6.83;;;11.30;99.90;;;;;;5000817;28;20175;-81
2021/09/06 02:25:36;;;;;;;11.67;7.33;;;11.20;99.90;;;;;;5000459;28;20184;-81
2021/09/06 02:28:02;;;;;;;9.07;7.30;;;11.20;99.90;;;;;;5000595;28;20182;-82
2021/09/06 02:30:28;;;;;;;11.30;7.50;;;11.10;99.90;;;;;;5001026;28;20653;-81
2021/09/06 02:32:54;;;;;;;10.53;7.47;;;11.10;99.90;;;;;;5001630;28;20206;-81
2021/09/06 02:35:19;;;;;;;11.23;7.70;;;11.10;99.90;;;;;;5001282;28;20194;-81
2021/09/06 02:37:45;;;;;;;9.20;7.40;;;11.00;99.90;;;;;;5012239;28;20175;-80
2021/09/06 02:40:13;;;;;;;8.60;6.90;;;11.00;99.90;;;;;;5014409;28;20199;-81
2021/09/06 02:42:39;;;;;;;9.20;7.07;;;11.00;99.90;;;;;;5015097;28;20183;-81
2021/09/06 02:45:05;;;;;;;11.50;7.53;;;10.90;99.90;;;;;;4999817;28;20193;-81
2021/09/06 02:47:31;;;;;;;9.90;7.43;;;10.90;99.90;;;;;;5000203;28;20181;-81
2021/09/06 02:50:02;;;;;;;8.97;7.33;;;10.80;99.90;;;;;;4999140;28;20598;-81
2021/09/06 02:52:28;;;;;;;10.60;7.47;;;10.80;99.90;;;;;;4999691;28;20171;-82
2021/09/06 02:54:54;;;;;;;9.23;6.80;;;10.80;99.90;;;;;;5000887;28;20175;-81
2021/09/06 02:57:19;;;;;;;9.33;7.23;;;10.70;99.90;;;;;;5002038;28;20203;-81
2021/09/06 02:59:45;;;;;;;9.27;7.20;;;10.60;99.90;;;;;;4998821;28;20209;-81
2021/09/06 03:02:11;;;;;;;9.87;6.43;;;10.60;99.90;;;;;;5000030;28;20183;-81
2021/09/06 03:04:36;;;;;;;8.83;7.23;;;10.60;99.90;;;;;;5000041;28;20175;-81
2021/09/06 03:07:02;;;;;;;8.83;7.20;;;10.60;99.90;;;;;;5000104;28;20262;-81
2021/09/06 03:09:28;;;;;;;8.93;7.00;;;10.50;99.90;;;;;;4999829;28;20304;-81
2021/09/06 03:11:53;;;;;;;10.03;7.13;;;10.50;99.90;;;;;;4999461;28;20180;-81
2021/09/06 03:14:19;;;;;;;12.20;7.70;;;10.50;99.90;;;;;;4999980;28;20169;-81
2021/09/06 03:16:45;;;;;;;9.03;6.97;;;10.50;99.90;;;;;;5000246;28;20179;-81
2021/09/06 03:19:10;;;;;;;11.27;7.07;;;10.50;99.90;;;;;;5000669;28;20195;-81
2021/09/06 03:21:36;;;;;;;13.00;7.93;;;10.50;99.90;;;;;;5000078;28;20195;-81
2021/09/06 03:24:02;;;;;;;10.00;6.63;;;10.50;99.90;;;;;;4998620;28;20655;-81
2021/09/06 03:26:27;;;;;;;8.33;6.93;;;10.50;99.90;;;;;;4999339;28;20171;-81
2021/09/06 03:28:53;;;;;;;9.67;7.90;;;10.50;99.90;;;;;;5002826;28;20273;-81
2021/09/06 03:31:19;;;;;;;9.30;6.80;;;10.50;99.90;;;;;;5003911;28;20171;-81
2021/09/06 03:33:44;;;;;;;9.60;6.93;;;10.40;99.90;;;;;;5003516;28;20182;-81
2021/09/06 03:36:10;;;;;;;10.17;6.90;;;10.50;99.90;;;;;;5005537;28;20205;-81
2021/09/06 03:38:36;;;;;;;10.93;7.23;;;10.50;99.90;;;;;;5006586;28;20193;-81
2021/09/06 03:41:02;;;;;;;8.80;6.37;;;10.50;99.90;;;;;;5009376;28;20257;-82
2021/09/06 03:43:28;;;;;;;8.20;6.53;;;10.50;99.90;;;;;;5003820;28;20208;-82
2021/09/06 03:45:53;;;;;;;11.10;7.73;;;10.40;99.90;;;;;;5004822;28;20209;-82
2021/09/06 03:48:19;;;;;;;10.97;7.30;;;10.40;99.90;;;;;;5006568;28;20236;-82
2021/09/06 03:50:48;;;;;;;9.37;6.90;;;10.40;99.90;;;;;;5007071;28;20196;-82
2021/09/06 03:53:13;;;;;;;10.13;6.93;;;10.40;99.90;;;;;;5002778;28;20626;-81
2021/09/06 03:55:39;;;;;;;11.40;6.57;;;10.40;99.90;;;;;;5002796;28;20210;-80
2021/09/06 03:58:05;;;;;;;9.33;7.03;;;10.40;99.90;;;;;;5003071;28;20186;-80
2021/09/06 04:00:31;;;;;;;9.27;7.30;;;10.40;99.90;;;;;;5002786;28;20221;-80
2021/09/06 04:02:56;;;;;;;10.40;6.53;;;10.30;99.90;;;;;;5000950;28;20187;-80
2021/09/06 04:05:22;;;;;;;10.30;6.73;;;10.30;99.90;;;;;;5000975;28;20180;-82
2021/09/06 04:07:48;;;;;;;9.80;7.07;;;10.30;99.90;;;;;;5002375;28;20211;-81
2021/09/06 04:10:14;;;;;;;11.20;6.53;;;10.30;99.90;;;;;;5000287;28;20302;-82
2021/09/06 04:12:40;;;;;;;8.30;6.73;;;10.30;99.90;;;;;;5001382;28;20216;-81
2021/09/06 04:15:08;;;;;;;10.40;7.13;;;10.30;99.90;;;;;;5001792;28;20637;-80
2021/09/06 04:17:34;;;;;;;9.37;7.13;;;10.30;99.90;;;;;;5011677;28;20265;-80
2021/09/06 04:20:00;;;;;;;10.73;7.77;;;10.20;99.90;;;;;;5005313;28;20198;-79
2021/09/06 04:22:26;;;;;;;9.73;7.27;;;10.20;99.90;;;;;;5003047;28;20260;-81
2021/09/06 04:24:51;;;;;;;9.13;7.13;;;10.20;99.90;;;;;;5003415;28;20174;-79
2021/09/06 04:27:17;;;;;;;13.53;7.47;;;10.10;99.90;;;;;;5003108;28;20185;-80
2021/09/06 04:29:42;;;;;;;10.73;7.63;;;10.10;99.90;;;;;;5001675;28;20259;-80
2021/09/06 04:32:08;;;;;;;9.70;6.97;;;10.10;99.90;;;;;;5001179;28;20186;-80
2021/09/06 04:34:34;;;;;;;12.67;7.27;;;10.10;99.90;;;;;;5002877;28;20247;-80
2021/09/06 04:37:00;;;;;;;11.27;7.30;;;10.10;99.90;;;;;;5002365;28;20176;-79
2021/09/06 04:39:25;;;;;;;11.03;8.13;;;10.10;99.90;;;;;;5008931;28;20199;-79
2021/09/06 04:41:51;;;;;;;11.00;6.73;;;10.20;99.90;;;;;;5008078;28;20175;-79
2021/09/06 04:44:17;;;;;;;10.50;7.20;;;10.20;99.90;;;;;;5003441;28;20247;-80
2021/09/06 04:46:42;;;;;;;9.57;7.60;;;10.10;99.90;;;;;;5001963;28;20278;-81
2021/09/06 04:49:08;;;;;;;11.10;7.37;;;10.10;99.90;;;;;;5002954;28;20238;-79
2021/09/06 04:51:34;;;;;;;8.70;7.47;;;10.10;99.90;;;;;;5003043;28;20171;-81
2021/09/06 04:54:00;;;;;;;8.93;6.67;;;10.10;99.90;;;;;;5000781;28;20238;-80
2021/09/06 04:56:26;;;;;;;8.70;6.57;;;10.00;99.90;;;;;;5001546;28;20238;-82
2021/09/06 04:58:51;;;;;;;8.83;6.80;;;10.10;99.90;;;;;;5002831;28;20179;-83
2021/09/06 05:01:18;;;;;;;9.33;7.23;;;10.10;99.90;;;;;;5002872;28;20178;-82
2021/09/06 05:03:44;;;;;;;10.80;7.33;;;10.10;99.90;;;;;;5002344;28;20180;-82
2021/09/06 05:06:09;;;;;;;8.93;6.80;;;10.10;99.90;;;;;;5001733;28;20182;-83
2021/09/06 05:08:35;;;;;;;10.70;6.93;;;10.20;99.90;;;;;;5004301;28;20207;-80
2021/09/06 05:11:01;;;;;;;10.80;7.30;;;10.20;99.90;;;;;;5003078;28;20212;-80
2021/09/06 05:13:28;;;;;;;8.67;6.97;;;10.20;99.90;;;;;;5004092;28;20585;-81
2021/09/06 05:15:53;;;;;;;9.40;7.17;;;10.20;99.90;;;;;;5004219;28;20260;-83
2021/09/06 05:18:19;;;;;;;8.67;7.20;;;10.20;99.90;;;;;;5004110;28;20593;-81
2021/09/06 05:20:45;;;;;;;13.73;7.37;;;10.20;99.90;;;;;;5003667;28;20241;-81
2021/09/06 05:23:10;;;;;;;7.93;6.80;;;10.20;99.90;;;;;;5001227;28;20179;-81
2021/09/06 05:25:36;;;;;;;10.87;7.60;;;10.20;99.90;;;;;;5002510;28;20242;-80
2021/09/06 05:28:03;;;;;;;12.03;6.93;;;10.30;99.90;;;;;;5002517;28;20178;-81
2021/09/06 05:30:30;;;;;;;12.00;6.60;;;10.40;99.90;;;;;;5002514;28;20310;-81
2021/09/06 05:32:56;;;;;;;12.23;7.73;;;10.40;99.90;;;;;;5001409;28;20199;-80
2021/09/06 05:35:21;;;;;;;10.87;7.70;;;10.50;99.90;;;;;;5000156;28;20201;-80
2021/09/06 05:37:47;;;;;;;11.27;8.27;;;10.50;99.90;;;;;;5001709;28;20175;-80
2021/09/06 05:40:13;;;;;;;9.67;7.50;;;10.60;99.90;;;;;;5000721;28;20719;-80
2021/09/06 05:42:38;;;;;;;8.10;6.43;;;10.60;99.90;;;;;;5000113;28;20179;-80
2021/09/06 05:45:04;;;;;;;12.07;7.40;;;10.60;99.90;;;;;;4998936;28;20246;-80
2021/09/06 05:47:30;;;;;;;8.40;6.60;;;10.70;99.90;;;;;;4998695;28;20175;-80
2021/09/06 05:49:56;;;;;;;9.23;6.93;;;10.70;99.90;;;;;;4997357;28;20211;-81
2021/09/06 05:52:21;;;;;;;10.50;6.70;;;10.70;99.90;;;;;;4999603;28;20626;-81
2021/09/06 05:54:47;;;;;;;13.07;6.83;;;10.80;99.90;;;;;;5008815;28;20177;-80
2021/09/06 05:57:13;;;;;;;10.07;6.83;;;10.80;99.90;;;;;;5001357;28;20259;-81
2021/09/06 05:59:38;;;;;;;10.43;6.43;;;10.90;99.90;;;;;;5000250;28;20213;-80
2021/09/06 06:02:04;;;;;;;9.63;6.10;;;10.90;99.90;;;;;;5000928;28;20660;-80
2021/09/06 06:04:30;;;;;;;12.47;6.40;;;11.10;99.90;;;;;;4999414;28;20183;-81
2021/09/06 06:06:55;;;;;;;14.27;6.20;;;11.20;99.90;;;;;;4999724;28;20230;-80
2021/09/06 06:09:21;;;;;;;8.33;6.23;;;11.30;99.90;;;;;;4998771;28;20238;-80
2021/09/06 06:11:47;;;;;;;7.50;6.00;;;11.30;99.90;;;;;;4999861;28;20578;-80
2021/09/06 06:14:14;;;;;;;10.57;7.00;;;11.40;99.90;;;;;;4998911;28;20180;-79
2021/09/06 06:16:40;;;;;;;8.87;5.67;;;11.50;99.90;;;;;;4999890;28;20179;-80
2021/09/06 06:19:06;;;;;;;10.97;6.60;;;11.70;99.90;;;;;;4999761;28;20202;-80
2021/09/06 06:21:32;;;;;;;12.07;6.77;;;11.80;99.90;;;;;;4999919;28;20226;-80
2021/09/06 06:23:58;;;;;;;8.60;6.17;;;11.90;99.90;;;;;;4998639;28;20184;-79
2021/09/06 06:26:24;;;;;;;7.17;5.43;;;12.00;99.90;;;;;;5001186;28;20196;-78
2021/09/06 06:28:50;;;;;;;7.87;5.67;;;12.10;99.90;;;;;;4999696;28;20746;-80
2021/09/06 06:31:16;;;;;;;12.13;5.87;;;12.20;99.90;;;;;;5002556;28;20202;-79
2021/09/06 06:33:41;;;;;;;9.70;6.50;;;12.30;99.90;;;;;;5001717;28;20199;-79
2021/09/06 06:36:07;;;;;;;8.13;5.63;;;12.50;99.90;;;;;;5000321;28;20191;-79
2021/09/06 06:38:34;;;;;;;11.07;5.57;;;12.60;99.90;;;;;;5000976;28;20222;-80
2021/09/06 06:41:01;;;;;;;10.13;5.20;;;12.70;99.90;;;;;;4998756;28;20274;-80
2021/09/06 06:43:27;;;;;;;6.50;4.87;;;12.80;99.90;;;;;;4997725;28;20277;-80
2021/09/06 06:45:53;;;;;;;7.00;4.90;;;13.00;99.90;;;;;;4998575;28;20633;-80
2021/09/06 06:48:18;;;;;;;8.10;5.03;;;13.10;99.90;;;;;;4997335;28;20175;-80
2021/09/06 06:50:44;;;;;;;6.43;4.70;;;13.30;99.90;;;;;;4998050;28;20735;-80
2021/09/06 06:53:10;;;;;;;10.30;4.70;;;13.40;99.90;;;;;;4998811;28;20262;-81
2021/09/06 06:55:36;;;;;;;7.63;5.20;;;13.60;99.90;;;;;;4998828;28;20231;-80
2021/09/06 06:58:02;;;;;;;7.17;4.90;;;13.70;99.90;;;;;;4997248;28;20218;-80
2021/09/06 07:00:28;;;;;;;5.80;4.40;;;13.80;99.90;;;;;;4998819;28;20195;-80
2021/09/06 07:02:53;;;;;;;5.50;4.27;;;13.90;99.90;;;;;;4997042;28;20187;-80
2021/09/06 07:05:19;;;;;;;8.73;5.23;;;14.00;99.90;;;;;;4998338;28;20669;-80
2021/09/06 07:07:45;;;;;;;6.60;4.00;;;14.20;99.90;;;;;;4998948;28;20517;-79
2021/09/06 07:10:11;;;;;;;8.27;4.70;;;14.40;99.90;;;;;;4997060;28;20261;-80
2021/09/06 07:12:38;;;;;;;6.77;4.23;;;14.50;99.90;;;;;;4997437;28;20271;-80
2021/09/06 07:15:05;;;;;;;7.47;4.50;;;14.70;99.90;;;;;;4998785;28;20218;-80
2021/09/06 07:17:31;;;;;;;7.33;4.47;;;14.90;99.90;;;;;;4997148;28;20246;-79
2021/09/06 07:19:57;;;;;;;5.93;4.30;;;15.00;99.90;;;;;;4998331;28;20199;-80
2021/09/06 07:22:22;;;;;;;6.20;4.60;;;15.20;99.90;;;;;;4998189;28;20187;-80
2021/09/06 07:24:48;;;;;;;6.47;4.87;;;15.30;99.90;;;;;;4998411;28;20167;-80
2021/09/06 07:27:14;;;;;;;6.57;4.50;;;15.40;99.90;;;;;;4998415;28;20207;-80
2021/09/06 07:29:40;;;;;;;10.20;4.30;;;15.60;99.90;;;;;;4996947;28;20257;-80
2021/09/06 07:32:06;;;;;;;6.17;4.50;;;15.70;99.90;;;;;;4998163;28;20172;-80
2021/09/06 07:34:37;;;;;;;6.70;4.60;;;15.90;99.90;;;;;;4997877;28;20657;-80
2021/09/06 07:37:05;;;;;;;6.13;4.37;;;16.00;99.90;;;;;;4997382;28;20168;-80
2021/09/06 07:39:31;;;;;;;7.53;4.40;;;16.20;99.90;;;;;;4997269;28;20195;-80
2021/09/06 07:41:57;;;;;;;9.50;4.57;;;16.40;99.90;;;;;;4997317;28;20183;-80
2021/09/06 07:44:23;;;;;;;9.37;4.80;;;16.60;99.90;;;;;;4998714;28;20168;-80
2021/09/06 07:46:50;;;;;;;5.43;4.40;;;16.90;99.90;;;;;;4999403;28;20681;-80
2021/09/06 07:49:16;;;;;;;9.70;4.70;;;17.20;99.90;;;;;;4997177;28;20215;-80
2021/09/06 07:51:42;;;;;;;6.00;4.50;;;17.40;99.90;;;;;;4998099;28;20181;-80
2021/09/06 07:54:08;;;;;;;6.73;4.87;;;17.60;99.90;;;;;;4997110;28;20189;-80
2021/09/06 07:56:35;;;;;;;6.60;4.40;;;17.80;99.90;;;;;;4998177;28;20180;-80
2021/09/06 07:59:00;;;;;;;6.10;4.10;;;18.30;99.90;;;;;;4998286;28;20226;-80
2021/09/06 08:01:26;;;;;;;6.40;4.50;;;18.80;99.90;;;;;;4997186;28;20180;-80
2021/09/06 08:03:51;;;;;;;8.07;4.50;;;19.40;99.90;;;;;;4996215;28;20184;-80
2021/09/06 08:06:17;;;;;;;8.13;4.77;;;20.40;99.90;;;;;;4997562;28;20183;-80
2021/09/06 08:08:43;;;;;;;8.23;4.47;;;21.40;99.90;;;;;;4996793;28;20206;-80
2021/09/06 08:11:08;;;;;;;6.50;4.63;;;22.40;99.90;;;;;;4997315;28;20269;-81
2021/09/06 08:13:34;;;;;;;6.07;4.87;;;23.30;99.90;;;;;;4998976;28;20179;-80
2021/09/06 08:16:00;;;;;;;6.93;5.10;;;24.00;99.90;;;;;;5005453;28;20171;-80
2021/09/06 08:18:25;;;;;;;11.23;4.90;;;24.40;99.90;;;;;;5006620;28;20524;-81
2021/09/06 08:20:51;;;;;;;7.30;5.10;;;24.90;99.90;;;;;;5008815;28;20204;-80
2021/09/06 08:23:17;;;;;;;9.33;5.30;;;25.30;99.90;;;;;;5009962;28;20533;-80
2021/09/06 08:25:42;;;;;;;8.03;4.83;;;25.50;99.90;;;;;;5008138;28;20194;-81
2021/09/06 08:28:08;;;;;;;6.77;5.30;;;25.60;99.90;;;;;;5002336;28;20183;-81
2021/09/06 08:30:34;;;;;;;5.90;4.73;;;25.60;99.90;;;;;;5002413;28;20717;-80
2021/09/06 08:33:00;;;;;;;7.13;4.57;;;25.70;99.90;;;;;;5001405;28;20178;-80
2021/09/06 08:35:26;;;;;;;4.93;4.43;;;25.80;99.90;;;;;;5000976;28;20193;-80
2021/09/06 08:37:51;;;;;;;5.73;4.70;;;26.00;99.90;;;;;;5001284;28;20262;-80
2021/09/06 08:40:17;;;;;;;9.00;5.50;;;26.00;99.90;;;;;;5001277;28;20606;-80
2021/09/06 08:42:43;;;;;;;5.17;4.50;;;26.00;99.90;;;;;;4999889;28;20192;-80
2021/09/06 08:45:10;;;;;;;5.90;5.00;;;25.70;99.90;;;;;;4999419;28;20526;-80
2021/09/06 08:47:36;;;;;;;8.57;4.87;;;25.80;99.90;;;;;;4999541;28;20550;-81
2021/09/06 08:50:06;;;;;;;5.93;5.17;;;25.90;99.90;;;;;;4999606;28;20219;-81
2021/09/06 08:52:31;;;;;;;5.17;4.67;;;25.90;99.90;;;;;;4999691;28;20209;-80
2021/09/06 08:54:57;;;;;;;6.60;4.93;;;25.50;99.90;;;;;;5001194;28;20195;-81
2021/09/06 08:57:22;;;;;;;7.63;5.03;;;25.50;99.90;;;;;;5001027;28;20560;-81
2021/09/06 08:59:56;;;;;;;10.00;5.50;;;25.60;99.90;;;;;;5000514;28;20196;-80
2021/09/06 09:02:23;;;;;;;5.63;5.03;;;25.80;99.90;;;;;;5000941;28;20190;-80
2021/09/06 09:04:59;;;;;;;6.43;5.50;;;25.90;99.90;;;;;;4999215;28;20193;-80
2021/09/06 09:07:26;;;;;;;5.07;4.50;;;26.20;99.90;;;;;;4999246;28;20201;-81
2021/09/06 09:09:52;;;;;;;8.00;5.43;;;26.30;99.90;;;;;;5000590;28;20299;-81
2021/09/06 09:12:20;;;;;;;5.20;4.70;;;26.30;99.90;;;;;;4999057;28;20212;-80
2021/09/06 09:14:49;;;;;;;5.73;4.67;;;26.20;99.90;;;;;;5000337;28;20200;-81
2021/09/06 09:17:15;;;;;;;8.93;4.97;;;26.30;99.90;;;;;;5000068;28;20172;-81
2021/09/06 09:19:42;;;;;;;5.83;4.33;;;26.20;99.90;;;;;;5000356;28;20303;-80
2021/09/06 09:22:10;;;;;;;6.13;4.73;;;26.30;99.90;;;;;;5000161;28;20162;-80
2021/09/06 09:24:37;;;;;;;4.97;4.07;;;26.30;99.70;;;;;;4999686;28;20649;-80
2021/09/06 09:27:15;;;;;;;8.83;4.80;;;26.20;99.10;;;;;;4999427;28;20208;-78
2021/09/06 09:29:44;;;;;;;6.37;4.60;;;26.20;99.90;;;;;;4999563;28;20207;-80
2021/09/06 09:32:12;;;;;;;5.70;4.67;;;26.30;99.90;;;;;;4998015;28;20280;-80
2021/09/06 09:34:43;;;;;;;5.20;4.70;;;26.40;99.90;;;;;;4999500;28;20193;-78
2021/09/06 09:37:09;;;;;;;9.43;4.63;;;26.40;99.70;;;;;;4999352;28;20167;-79
2021/09/06 09:39:37;;;;;;;6.33;4.80;;;26.50;98.90;;;;;;4998276;28;20219;-79
2021/09/06 09:42:08;;;;;;;5.43;4.80;;;26.50;98.40;;;;;;4999984;28;20228;-79
2021/09/06 09:44:55;;;;;;;5.13;4.20;;;26.40;98.50;;;;;;4999097;28;20176;-79
2021/09/06 09:47:23;;;;;;;5.47;4.70;;;26.50;98.00;;;;;;4998153;28;20184;-80
2021/09/06 09:49:54;;;;;;;10.40;4.63;;;26.50;98.70;;;;;;4998585;28;20219;-81
2021/09/06 09:52:22;;;;;;;5.23;4.63;;;26.60;99.70;;;;;;4998543;28;20181;-81
2021/09/06 09:54:52;;;;;;;5.13;4.63;;;26.60;99.90;;;;;;4999595;28;20177;-82
2021/09/06 09:57:19;;;;;;;7.93;4.57;;;26.80;96.90;;;;;;4999073;28;20212;-81
2021/09/06 09:59:44;;;;;;;6.90;4.40;;;27.10;97.70;;;;;;4999643;28;20201;-81
2021/09/06 10:02:15;;;;;;;5.10;4.60;;;27.20;95.80;;;;;;4999001;28;20189;-81
2021/09/06 10:04:47;;;;;;;5.50;4.80;;;27.30;94.30;;;;;;4998465;28;20251;-81
2021/09/06 10:07:14;;;;;;;6.80;4.73;;;27.40;97.60;;;;;;5000722;28;20216;-80
2021/09/06 10:09:42;;;;;;;6.10;4.20;;;27.60;97.60;;;;;;4999124;28;20415;-80
2021/09/06 10:12:08;;;;;;;5.43;4.93;;;27.50;95.20;;;;;;5007390;28;20202;-80
2021/09/06 10:14:34;;;;;;;4.90;4.50;;;27.30;97.40;;;;;;5008784;28;20233;-80
2021/09/06 10:17:04;;;;;;;6.00;4.60;;;27.60;95.30;;;;;;5006403;28;20630;-81
2021/09/06 10:19:43;;;;;;;4.63;4.23;;;27.80;93.30;;;;;;4999023;28;20667;-80
2021/09/06 10:22:24;;;;;;;8.57;4.50;;;27.90;93.60;;;;;;4999323;28;20254;-80
2021/09/06 10:24:58;;;;;;;5.90;4.30;;;28.00;92.70;;;;;;4997453;28;20591;-80
2021/09/06 10:27:24;;;;;;;6.43;4.63;;;28.10;96.40;;;;;;5000045;28;20239;-81
2021/09/06 10:30:06;;;;;;;7.97;4.03;;;28.20;93.60;;;;;;5000554;28;20211;-81
2021/09/06 10:32:44;;;;;;;4.87;3.93;;;28.20;93.50;;;;;;4998210;28;20182;-80
2021/09/06 10:35:17;;;;;;;5.13;4.43;;;28.30;95.40;;;;;;4998291;28;20209;-81
2021/09/06 10:37:43;;;;;;;8.63;4.37;;;28.40;92.40;;;;;;4999300;28;20247;-80
2021/09/06 10:40:12;;;;;;;4.80;4.40;;;28.40;91.80;;;;;;4998912;28;20254;-79
2021/09/06 10:42:40;;;;;;;7.13;4.43;;;28.70;90.50;;;;;;4998639;28;20211;-79
2021/09/06 10:45:07;;;;;;;6.43;4.50;;;29.00;86.30;;;;;;4998009;28;20216;-80
2021/09/06 10:47:37;;;;;;;4.67;4.27;;;29.00;91.40;;;;;;4997269;28;20643;-80
2021/09/06 10:50:16;;;;;;;4.83;4.10;;;29.00;92.30;;;;;;4998507;28;20340;-79
2021/09/06 10:52:43;;;;;;;9.57;4.53;;;29.00;93.60;;;;;;4997991;28;20179;-80
2021/09/06 10:55:10;;;;;;;4.60;4.20;;;29.10;89.70;;;;;;4996469;28;20180;-79
2021/09/06 10:57:40;;;;;;;5.20;4.27;;;29.10;90.10;;;;;;4997765;28;20187;-79
2021/09/06 11:00:07;;;;;;;5.97;3.90;;;29.00;92.10;;;;;;4998109;28;20706;-79
2021/09/06 11:02:33;;;;;;;5.33;4.40;;;29.20;89.50;;;;;;4997508;28;20185;-80
2021/09/06 11:04:59;;;;;;;4.60;3.83;;;29.20;92.70;;;;;;4997236;28;20191;-80
2021/09/06 11:07:25;;;;;;;4.30;3.83;;;29.50;86.40;;;;;;4998049;28;20204;-80
2021/09/06 11:09:50;;;;;;;6.20;4.17;;;29.70;91.60;;;;;;4996529;28;20215;-79
2021/09/06 11:12:16;;;;;;;5.40;4.27;;;29.80;90.60;;;;;;4998095;28;20175;-79
2021/09/06 11:14:44;;;;;;;6.63;4.60;;;29.50;90.00;;;;;;4996703;28;20210;-79
2021/09/06 11:17:26;;;;;;;6.83;4.33;;;29.40;86.40;;;;;;4996276;28;20187;-79
2021/09/06 11:19:57;;;;;;;4.07;3.67;;;29.00;85.20;;;;;;4996316;28;20270;-79
2021/09/06 11:22:28;;;;;;;4.03;3.70;;;28.80;82.70;;;;;;4997599;28;20233;-78
2021/09/06 11:25:00;;;;;;;6.23;3.97;;;29.00;85.90;;;;;;4997810;28;20174;-78
2021/09/06 11:27:31;;;;;;;3.73;3.37;;;29.30;86.50;;;;;;4997795;28;20183;-78
2021/09/06 11:29:58;;;;;;;5.10;3.97;;;29.90;80.00;;;;;;4997141;28;20221;-79
2021/09/06 11:32:24;;;;;;;4.00;3.60;;;30.20;80.50;;;;;;4997532;28;20214;-79
2021/09/06 11:35:03;;;;;;;4.57;3.77;;;30.50;80.40;;;;;;4997403;28;20198;-78
2021/09/06 11:37:28;;;;;;;5.93;3.90;;;31.00;81.80;;;;;;4997958;28;20180;-81
2021/09/06 11:39:54;;;;;;;4.33;3.93;;;31.30;79.70;;;;;;4997459;28;20286;-79
2021/09/06 11:42:20;;;;;;;4.50;4.10;;;31.60;78.70;;;;;;4997706;28;20642;-79
2021/09/06 11:44:47;;;;;;;4.33;4.03;;;31.70;71.40;;;;;;4997399;28;20592;-79
2021/09/06 11:47:14;;;;;;;5.87;4.27;;;31.80;79.70;;;;;;4997110;28;20180;-78
2021/09/06 11:49:50;;;;;;;5.57;4.07;;;32.10;77.40;;;;;;5004818;28;20636;-78
2021/09/06 11:52:18;;;;;;;4.97;3.80;;;32.10;77.10;;;;;;5005030;28;20528;-78
2021/09/06 11:54:44;;;;;;;5.33;4.07;;;32.10;66.10;;;;;;4999892;28;20272;-78
2021/09/06 11:57:12;;;;;;;4.00;3.70;;;32.00;72.70;;;;;;5001073;28;20177;-79
2021/09/06 11:59:39;;;;;;;4.63;3.90;;;32.20;67.90;;;;;;4999276;28;20201;-78
2021/09/06 12:02:12;;;;;;;4.63;4.00;;;32.60;73.30;;;;;;4999301;28;20273;-79
2021/09/06 12:04:38;;;;;;;5.37;3.80;;;32.70;64.00;;;;;;5000365;28;20177;-78
2021/09/06 12:07:17;;;;;;;4.23;3.77;;;32.70;62.60;;;;;;4998865;28;20265;-78
2021/09/06 12:09:44;;;;;;;4.67;4.07;;;32.80;70.00;;;;;;4998314;28;20219;-78
2021/09/06 12:12:22;;;;;;;4.57;4.17;;;32.90;62.30;;;;;;4999366;28;20641;-79
2021/09/06 12:14:50;;;;;;;6.30;4.23;;;32.90;61.80;;;;;;4999052;28;20175;-79
2021/09/06 12:17:16;;;;;;;4.50;4.10;;;32.90;66.20;;;;;;5000427;28;20180;-79
2021/09/06 12:19:47;;;;;;;3.83;3.53;;;32.80;63.20;;;;;;4999959;28;20206;-79
2021/09/06 12:22:32;;;;;;;4.47;3.47;;;33.00;65.00;;;;;;5003408;28;20199;-81
2021/09/06 12:25:06;;;;;;;4.37;3.87;;;32.90;56.90;;;;;;5004596;28;20164;-81
2021/09/06 12:27:34;;;;;;;4.40;3.77;;;33.00;62.30;;;;;;5003804;28;20677;-77
2021/09/06 12:30:00;;;;;;;5.07;4.17;;;33.40;60.50;;;;;;4997926;28;20288;-77
2021/09/06 12:32:27;;;;;;;4.90;4.17;;;33.70;60.90;;;;;;4997413;28;20287;-79
2021/09/06 12:34:53;;;;;;;5.20;4.07;;;33.80;62.60;;;;;;4996955;28;20664;-78
2021/09/06 12:37:22;;;;;;;3.90;3.57;;;34.20;60.90;;;;;;4997709;28;20184;-79
2021/09/06 12:39:47;;;;;;;4.60;4.20;;;34.00;59.10;;;;;;4998406;28;20207;-78
2021/09/06 12:42:13;;;;;;;4.27;3.80;;;34.20;55.90;;;;;;5001658;28;20559;-80
2021/09/06 12:44:39;;;;;;;4.20;3.80;;;34.30;57.20;;;;;;5000031;28;20182;-79